createdAt,value
2018-06-08T00:00:12.454Z,20.34
2018-06-08T00:01:22.609Z,20.34
2018-06-08T00:02:32.760Z,20.31
2018-06-08T00:03:42.903Z,20.34
2018-06-08T00:04:53.028Z,20.28
2018-06-08T00:06:02.931Z,20.23
2018-06-08T00:07:12.866Z,20.2
2018-06-08T00:08:22.739Z,20.21
2018-06-08T00:09:32.888Z,20.23
2018-06-08T00:10:43.012Z,20.21
2018-06-08T00:11:53.198Z,20.24
2018-06-08T00:13:03.399Z,20.21
2018-06-08T00:14:13.648Z,20.23
2018-06-08T00:15:23.881Z,20.21
2018-06-08T00:16:34.074Z,20.28
2018-06-08T00:17:44.285Z,20.19
2018-06-08T00:18:54.458Z,20.2
2018-06-08T00:20:04.746Z,20.19
2018-06-08T00:21:15.003Z,20.19
2018-06-08T00:22:24.880Z,20.17
2018-06-08T00:23:34.893Z,20.2
2018-06-08T00:24:45.050Z,20.17
2018-06-08T00:25:55.190Z,20.3
2018-06-08T00:27:05.578Z,20.19
2018-06-08T00:28:15.764Z,20.23
2018-06-08T00:29:25.969Z,20.3
2018-06-08T00:30:36.167Z,20.19
2018-06-08T00:31:46.335Z,20.26
2018-06-08T00:32:56.602Z,20.28
2018-06-08T00:34:06.774Z,20.34
2018-06-08T00:35:16.892Z,20.26
2018-06-08T00:36:27.041Z,20.3
2018-06-08T00:37:37.185Z,20.28
2018-06-08T00:38:47.349Z,20.28
2018-06-08T00:39:57.549Z,20.26
2018-06-08T00:41:07.782Z,20.3
2018-06-08T00:42:17.915Z,20.21
2018-06-08T00:43:28.083Z,20.24
2018-06-08T00:44:38.231Z,20.27
2018-06-08T00:45:48.513Z,20.28
2018-06-08T00:46:58.633Z,20.23
2018-06-08T00:48:08.801Z,20.19
2018-06-08T00:49:18.979Z,20.12
2018-06-08T00:50:29.179Z,20.12
2018-06-08T00:51:39.357Z,20.17
2018-06-08T00:52:49.486Z,20.11
2018-06-08T00:53:59.621Z,20.05
2018-06-08T00:55:09.823Z,20.03
2018-06-08T00:56:20.005Z,20.03
2018-06-08T00:57:30.251Z,20.08
2018-06-08T00:58:40.415Z,20.03
2018-06-08T00:59:50.571Z,19.98
2018-06-08T01:01:00.736Z,20.04
2018-06-08T01:02:10.898Z,19.98
2018-06-08T01:03:21.043Z,20.03
2018-06-08T01:04:30.957Z,19.97
2018-06-08T01:05:41.109Z,19.98
2018-06-08T01:06:51.237Z,20.04
2018-06-08T01:08:01.384Z,20.01
2018-06-08T01:09:11.508Z,20.03
2018-06-08T01:10:21.674Z,20.04
2018-06-08T01:11:32.018Z,20
2018-06-08T01:12:42.200Z,20.08
2018-06-08T01:13:52.522Z,19.95
2018-06-08T01:15:02.684Z,20.08
2018-06-08T01:16:12.832Z,19.95
2018-06-08T01:17:23.019Z,20.07
2018-06-08T01:18:33.208Z,20.03
2018-06-08T01:19:43.356Z,19.97
2018-06-08T01:20:53.290Z,20.04
2018-06-08T01:22:03.176Z,19.98
2018-06-08T01:23:13.309Z,20.04
2018-06-08T01:24:23.437Z,20.01
2018-06-08T01:25:33.616Z,19.95
2018-06-08T01:26:43.761Z,19.95
2018-06-08T01:27:53.926Z,19.92
2018-06-08T01:29:04.067Z,19.93
2018-06-08T01:30:14.193Z,19.89
2018-06-08T01:31:24.354Z,19.92
2018-06-08T01:32:34.534Z,19.89
2018-06-08T01:33:44.900Z,19.93
2018-06-08T01:34:55.091Z,19.95
2018-06-08T01:36:05.253Z,19.92
2018-06-08T01:37:15.532Z,19.92
2018-06-08T01:38:25.744Z,19.86
2018-06-08T01:39:35.901Z,19.89
2018-06-08T01:40:46.254Z,19.83
2018-06-08T01:41:56.383Z,19.82
2018-06-08T01:43:06.532Z,19.78
2018-06-08T01:44:16.832Z,19.78
2018-06-08T01:45:26.701Z,19.82
2018-06-08T01:46:36.845Z,19.8
2018-06-08T01:47:47.003Z,19.73
2018-06-08T01:48:57.193Z,19.73
2018-06-08T01:50:07.439Z,19.83
2018-06-08T01:51:17.576Z,19.82
2018-06-08T01:52:27.991Z,19.78
2018-06-08T01:53:38.122Z,19.82
2018-06-08T01:54:48.292Z,19.82
2018-06-08T01:55:58.506Z,19.85
2018-06-08T01:57:08.674Z,19.83
2018-06-08T01:58:18.924Z,19.85
2018-06-08T01:59:29.144Z,19.8
2018-06-08T02:00:39.280Z,19.83
2018-06-08T02:01:49.169Z,19.83
2018-06-08T02:02:59.325Z,19.73
2018-06-08T02:04:09.644Z,19.74
2018-06-08T02:05:19.893Z,19.78
2018-06-08T02:06:30.113Z,19.71
2018-06-08T02:07:40.291Z,19.76
2018-06-08T02:08:50.446Z,19.76
2018-06-08T02:10:00.611Z,19.7
2018-06-08T02:11:10.743Z,19.61
2018-06-08T02:12:20.658Z,19.58
2018-06-08T02:13:30.880Z,19.64
2018-06-08T02:14:41.049Z,19.64
2018-06-08T02:15:51.266Z,19.6
2018-06-08T02:17:01.404Z,19.68
2018-06-08T02:18:11.529Z,19.49
2018-06-08T02:19:21.663Z,19.61
2018-06-08T02:20:31.786Z,19.55
2018-06-08T02:21:41.953Z,19.48
2018-06-08T02:22:52.288Z,19.49
2018-06-08T02:24:02.431Z,19.43
2018-06-08T02:25:12.664Z,19.45
2018-06-08T02:26:22.812Z,19.35
2018-06-08T02:27:33.026Z,19.39
2018-06-08T02:28:43.158Z,19.4
2018-06-08T02:29:53.312Z,19.42
2018-06-08T02:31:03.437Z,19.33
2018-06-08T02:32:13.570Z,19.34
2018-06-08T02:33:23.706Z,19.4
2018-06-08T02:34:33.845Z,19.37
2018-06-08T02:35:43.797Z,19.28
2018-06-08T02:36:53.937Z,19.35
2018-06-08T02:38:04.171Z,19.31
2018-06-08T02:39:14.354Z,19.23
2018-06-08T02:40:24.506Z,19.33
2018-06-08T02:41:34.744Z,19.28
2018-06-08T02:42:45.038Z,19.27
2018-06-08T02:43:54.928Z,19.25
2018-06-08T02:45:05.073Z,19.3
2018-06-08T02:46:15.232Z,19.25
2018-06-08T02:47:25.397Z,19.24
2018-06-08T02:48:35.596Z,19.23
2018-06-08T02:49:45.807Z,19.15
2018-06-08T02:50:56.018Z,19.15
2018-06-08T02:52:06.272Z,19.1
2018-06-08T02:53:16.501Z,19.23
2018-06-08T02:54:26.662Z,19.1
2018-06-08T02:55:36.944Z,19.13
2018-06-08T02:56:47.128Z,19.18
2018-06-08T02:57:57.331Z,19.13
2018-06-08T02:59:07.467Z,19.12
2018-06-08T03:00:17.615Z,19
2018-06-08T03:01:27.624Z,19.05
2018-06-08T03:02:37.809Z,18.97
2018-06-08T03:03:48.074Z,19.05
2018-06-08T03:04:58.207Z,18.98
2018-06-08T03:06:08.376Z,19
2018-06-08T03:07:18.651Z,18.95
2018-06-08T03:08:28.519Z,18.95
2018-06-08T03:09:38.670Z,19
2018-06-08T03:10:48.835Z,19
2018-06-08T03:11:59.066Z,18.98
2018-06-08T03:13:09.324Z,19.03
2018-06-08T03:14:19.471Z,18.95
2018-06-08T03:15:29.602Z,18.94
2018-06-08T03:16:39.742Z,18.97
2018-06-08T03:17:49.869Z,18.95
2018-06-08T03:19:00.033Z,18.97
2018-06-08T03:20:10.261Z,18.97
2018-06-08T03:21:20.402Z,18.95
2018-06-08T03:22:30.609Z,18.9
2018-06-08T03:23:40.875Z,18.94
2018-06-08T03:24:51.024Z,18.8
2018-06-08T03:26:01.467Z,18.87
2018-06-08T03:27:11.593Z,18.82
2018-06-08T03:28:21.808Z,18.82
2018-06-08T03:29:32.006Z,18.69
2018-06-08T03:30:41.807Z,18.72
2018-06-08T03:31:51.427Z,18.71
2018-06-08T03:33:01.670Z,18.65
2018-06-08T03:34:11.931Z,18.62
2018-06-08T03:35:22.101Z,18.5
2018-06-08T03:36:31.986Z,18.47
2018-06-08T03:37:42.116Z,18.5
2018-06-08T03:38:52.262Z,18.49
2018-06-08T03:40:02.511Z,18.49
2018-06-08T03:41:12.705Z,18.4
2018-06-08T03:42:22.861Z,18.4
2018-06-08T03:43:33.050Z,18.53
2018-06-08T03:44:43.251Z,18.38
2018-06-08T03:45:53.525Z,18.42
2018-06-08T03:47:03.658Z,18.47
2018-06-08T03:48:13.851Z,18.5
2018-06-08T03:49:23.810Z,18.47
2018-06-08T03:50:34.004Z,18.53
2018-06-08T03:51:44.335Z,18.53
2018-06-08T03:52:54.284Z,18.52
2018-06-08T03:54:04.398Z,18.42
2018-06-08T03:55:14.597Z,18.4
2018-06-08T03:56:24.732Z,18.41
2018-06-08T03:57:34.891Z,18.35
2018-06-08T03:58:45.184Z,18.52
2018-06-08T03:59:55.345Z,18.53
2018-06-08T04:01:05.498Z,18.59
2018-06-08T04:02:15.662Z,18.59
2018-06-08T04:03:25.791Z,18.67
2018-06-08T04:04:35.941Z,18.65
2018-06-08T04:05:46.103Z,18.67
2018-06-08T04:06:56.015Z,18.75
2018-06-08T04:08:06.383Z,18.71
2018-06-08T04:09:16.553Z,18.75
2018-06-08T04:10:26.723Z,18.65
2018-06-08T04:11:36.901Z,18.72
2018-06-08T04:12:47.033Z,18.65
2018-06-08T04:13:57.175Z,18.72
2018-06-08T04:15:07.358Z,18.71
2018-06-08T04:16:17.556Z,18.78
2018-06-08T04:17:27.713Z,18.79
2018-06-08T04:18:37.854Z,18.84
2018-06-08T04:19:47.999Z,18.72
2018-06-08T04:20:58.226Z,18.69
2018-06-08T04:22:08.421Z,18.79
2018-06-08T04:23:18.714Z,18.78
2018-06-08T04:24:28.942Z,18.8
2018-06-08T04:25:39.098Z,18.69
2018-06-08T04:26:49.386Z,18.69
2018-06-08T04:27:59.280Z,18.71
2018-06-08T04:29:09.413Z,18.76
2018-06-08T04:30:19.358Z,18.67
2018-06-08T04:31:29.557Z,18.69
2018-06-08T04:32:39.713Z,18.72
2018-06-08T04:33:49.948Z,18.8
2018-06-08T04:35:00.137Z,18.8
2018-06-08T04:36:10.306Z,18.78
2018-06-08T04:37:20.479Z,18.79
2018-06-08T04:38:30.280Z,18.8
2018-06-08T04:39:40.167Z,18.82
2018-06-08T04:40:50.310Z,18.8
2018-06-08T04:42:00.457Z,18.8
2018-06-08T04:43:10.644Z,18.76
2018-06-08T04:44:20.813Z,18.79
2018-06-08T04:45:30.971Z,18.87
2018-06-08T04:46:40.849Z,18.78
2018-06-08T04:47:50.987Z,18.8
2018-06-08T04:49:01.223Z,18.8
2018-06-08T04:50:11.484Z,18.76
2018-06-08T04:51:21.659Z,18.84
2018-06-08T04:52:31.896Z,18.8
2018-06-08T04:53:42.127Z,18.82
2018-06-08T04:54:52.276Z,18.88
2018-06-08T04:56:02.455Z,18.87
2018-06-08T04:57:12.733Z,18.87
2018-06-08T04:58:22.976Z,18.95
2018-06-08T04:59:33.257Z,18.93
2018-06-08T05:00:43.505Z,19.1
2018-06-08T05:01:53.698Z,19.05
2018-06-08T05:03:03.947Z,19.06
2018-06-08T05:04:14.176Z,19.06
2018-06-08T05:05:24.427Z,19.13
2018-06-08T05:06:34.596Z,19.15
2018-06-08T05:07:44.740Z,19.23
2018-06-08T05:08:54.956Z,19.16
2018-06-08T05:10:05.186Z,19.16
2018-06-08T05:11:15.347Z,19.19
2018-06-08T05:12:25.525Z,19.13
2018-06-08T05:13:35.690Z,19.12
2018-06-08T05:14:45.821Z,19.13
2018-06-08T05:15:55.959Z,19.06
2018-06-08T05:17:06.115Z,19.18
2018-06-08T05:18:17.280Z,19.13
2018-06-08T05:19:27.451Z,19.18
2018-06-08T05:20:37.681Z,19.21
2018-06-08T05:21:47.879Z,19.15
2018-06-08T05:22:58.027Z,19.09
2018-06-08T05:24:08.164Z,19.15
2018-06-08T05:25:18.569Z,19.15
2018-06-08T05:26:28.800Z,19.24
2018-06-08T05:27:38.663Z,19.23
2018-06-08T05:28:48.797Z,19.25
2018-06-08T05:29:58.941Z,19.25
2018-06-08T05:31:09.159Z,19.34
2018-06-08T05:32:19.412Z,19.24
2018-06-08T05:33:29.685Z,19.25
2018-06-08T05:34:39.943Z,19.31
2018-06-08T05:35:50.178Z,19.39
2018-06-08T05:37:00.438Z,19.42
2018-06-08T05:38:10.321Z,19.39
2018-06-08T05:39:20.447Z,19.39
2018-06-08T05:40:30.578Z,19.35
2018-06-08T05:41:40.720Z,19.39
2018-06-08T05:42:50.917Z,19.42
2018-06-08T05:44:01.157Z,19.56
2018-06-08T05:45:11.312Z,19.52
2018-06-08T05:46:21.571Z,19.48
2018-06-08T05:47:31.797Z,19.64
2018-06-08T05:48:41.956Z,19.64
2018-06-08T05:49:52.126Z,19.7
2018-06-08T05:51:01.766Z,19.73
2018-06-08T05:52:11.949Z,19.86
2018-06-08T05:53:22.125Z,19.88
2018-06-08T05:54:32.093Z,19.86
2018-06-08T05:55:42.226Z,19.95
2018-06-08T05:56:52.365Z,19.95
2018-06-08T05:58:02.556Z,20.01
2018-06-08T05:59:12.744Z,20.01
2018-06-08T06:00:22.887Z,20.05
2018-06-08T06:01:33.065Z,20.07
2018-06-08T06:02:43.230Z,20.14
2018-06-08T06:03:53.402Z,20.05
2018-06-08T06:05:03.660Z,20.17
2018-06-08T06:06:13.857Z,20.05
2018-06-08T06:07:25.069Z,20.12
2018-06-08T06:08:35.332Z,20.28
2018-06-08T06:09:45.233Z,20.28
2018-06-08T06:10:55.376Z,20.34
2018-06-08T06:12:05.196Z,20.31
2018-06-08T06:13:15.215Z,20.36
2018-06-08T06:14:25.514Z,20.41
2018-06-08T06:15:35.359Z,20.45
2018-06-08T06:16:45.495Z,20.43
2018-06-08T06:17:55.655Z,20.46
2018-06-08T06:19:05.856Z,20.54
2018-06-08T06:20:16.103Z,20.48
2018-06-08T06:21:25.991Z,20.66
2018-06-08T06:22:36.149Z,20.66
2018-06-08T06:23:46.376Z,20.68
2018-06-08T06:24:56.575Z,20.78
2018-06-08T06:26:06.791Z,20.78
2018-06-08T06:27:16.958Z,20.85
2018-06-08T06:28:27.154Z,20.83
2018-06-08T06:29:37.362Z,20.93
2018-06-08T06:30:50.973Z,20.97
2018-06-08T06:33:16.489Z,20.93
2018-06-08T06:34:26.646Z,20.98
2018-06-08T06:35:36.786Z,20.98
2018-06-08T06:36:46.996Z,20.98
2018-06-08T06:37:57.761Z,21.01
2018-06-08T06:39:15.242Z,21.03
2018-06-08T06:43:02.245Z,21.04
2018-06-08T06:45:28.586Z,21.06
2018-06-08T06:46:38.761Z,21.06
2018-06-08T06:47:48.907Z,21.08
2018-06-08T06:48:58.832Z,21.08
2018-06-08T06:50:09.224Z,21.13
2018-06-08T06:51:19.374Z,21.08
2018-06-08T06:52:29.590Z,21.12
2018-06-08T06:53:39.832Z,21.2
2018-06-08T06:54:50.104Z,21.15
2018-06-08T06:56:00.314Z,21.25
2018-06-08T06:57:10.519Z,21.23
2018-06-08T06:58:20.766Z,21.23
2018-06-08T06:59:30.955Z,21.37
2018-06-08T07:00:41.245Z,21.38
2018-06-08T07:01:51.433Z,21.56
2018-06-08T07:03:01.646Z,21.48
2018-06-08T07:04:11.517Z,21.53
2018-06-08T07:05:21.732Z,21.57
2018-06-08T07:06:31.679Z,21.58
2018-06-08T07:07:41.961Z,21.58
2018-06-08T07:08:52.158Z,21.57
2018-06-08T07:10:02.417Z,21.64
2018-06-08T07:11:12.586Z,21.69
2018-06-08T07:12:22.733Z,21.69
2018-06-08T07:13:32.876Z,21.73
2018-06-08T07:14:43.021Z,21.72
2018-06-08T07:15:53.236Z,21.87
2018-06-08T07:17:03.433Z,21.88
2018-06-08T07:18:13.617Z,21.98
2018-06-08T07:19:23.781Z,21.97
2018-06-08T07:20:33.939Z,22.02
2018-06-08T07:21:44.279Z,21.97
2018-06-08T07:22:54.475Z,22.09
2018-06-08T07:24:04.814Z,22.13
2018-06-08T07:25:15.038Z,22.23
2018-06-08T07:26:25.178Z,22.33
2018-06-08T07:27:35.371Z,22.28
2018-06-08T07:28:45.569Z,22.38
2018-06-08T07:29:55.770Z,22.42
2018-06-08T07:31:05.972Z,22.4
2018-06-08T07:32:15.900Z,22.46
2018-06-08T07:33:26.109Z,22.42
2018-06-08T07:34:36.251Z,22.48
2018-06-08T07:35:46.439Z,22.55
2018-06-08T07:36:56.646Z,22.63
2018-06-08T07:38:06.817Z,22.55
2018-06-08T07:39:16.957Z,22.63
2018-06-08T07:40:27.121Z,22.64
2018-06-08T07:41:37.307Z,22.68
2018-06-08T07:42:47.508Z,22.7
2018-06-08T07:43:57.693Z,22.75
2018-06-08T07:45:07.867Z,22.85
2018-06-08T07:46:18.019Z,22.87
2018-06-08T07:47:27.935Z,22.87
2018-06-08T07:48:38.104Z,22.99
2018-06-08T07:49:48.277Z,23.01
2018-06-08T07:50:58.426Z,22.96
2018-06-08T07:52:08.593Z,23.06
2018-06-08T07:53:18.730Z,23.06
2018-06-08T07:54:28.609Z,23.23
2018-06-08T07:55:38.817Z,23.09
2018-06-08T07:56:49.013Z,23.09
2018-06-08T07:57:59.180Z,23.14
2018-06-08T07:59:09.359Z,23.2
2018-06-08T08:00:19.603Z,23.17
2018-06-08T08:01:29.849Z,23.18
2018-06-08T08:02:40.043Z,23.24
2018-06-08T08:03:50.252Z,23.14
2018-06-08T08:05:00.576Z,23.13
2018-06-08T08:06:10.865Z,23.17
2018-06-08T08:07:21.064Z,23.18
2018-06-08T08:08:31.232Z,23.17
2018-06-08T08:09:41.481Z,23.33
2018-06-08T08:10:51.706Z,23.27
2018-06-08T08:12:01.982Z,23.33
2018-06-08T08:13:12.180Z,23.39
2018-06-08T08:14:22.395Z,23.38
2018-06-08T08:15:32.612Z,23.5
2018-06-08T08:16:42.757Z,23.46
2018-06-08T08:17:52.646Z,23.55
2018-06-08T08:19:02.832Z,23.68
2018-06-08T08:20:13.013Z,23.73
2018-06-08T08:21:23.207Z,23.76
2018-06-08T08:22:33.362Z,23.88
2018-06-08T08:23:43.577Z,23.98
2018-06-08T08:24:53.725Z,24.02
2018-06-08T08:26:03.923Z,24.12
2018-06-08T08:27:14.203Z,24.22
2018-06-08T08:28:24.407Z,24.31
2018-06-08T08:29:34.634Z,24.47
2018-06-08T08:30:44.785Z,24.54
2018-06-08T08:31:54.943Z,24.65
2018-06-08T08:33:05.206Z,24.81
2018-06-08T08:34:15.617Z,24.85
2018-06-08T08:35:25.825Z,24.94
2018-06-08T08:36:36.010Z,25.06
2018-06-08T08:37:46.160Z,25.21
2018-06-08T08:38:56.437Z,25.31
2018-06-08T08:40:06.658Z,25.5
2018-06-08T08:41:16.806Z,25.54
2018-06-08T08:42:26.976Z,25.65
2018-06-08T08:43:37.301Z,25.74
2018-06-08T08:44:47.541Z,25.84
2018-06-08T08:45:57.722Z,25.99
2018-06-08T08:47:08.009Z,26.24
2018-06-08T08:48:18.210Z,26.3
2018-06-08T08:49:28.111Z,26.43
2018-06-08T08:50:38.083Z,26.62
2018-06-08T08:51:48.548Z,26.74
2018-06-08T08:52:58.758Z,26.9
2018-06-08T08:54:08.944Z,26.89
2018-06-08T08:55:19.138Z,27.24
2018-06-08T08:56:29.319Z,27.64
2018-06-08T08:57:39.516Z,28.22
2018-06-08T08:58:49.752Z,28.74
2018-06-08T09:00:00.920Z,29.18
2018-06-08T09:01:11.139Z,29.73
2018-06-08T09:02:21.785Z,30.29
2018-06-08T09:03:32.062Z,30.72
2018-06-08T09:04:42.245Z,31.15
2018-06-08T09:05:52.451Z,31.58
2018-06-08T09:07:02.676Z,31.9
2018-06-08T09:08:13.820Z,32.21
2018-06-08T09:09:24.190Z,32.28
2018-06-08T09:10:34.363Z,32.41
2018-06-08T09:11:44.527Z,32.36
2018-06-08T09:12:54.777Z,32.44
2018-06-08T09:14:04.954Z,32.38
2018-06-08T09:15:15.161Z,32.44
2018-06-08T09:16:25.592Z,32.62
2018-06-08T09:17:35.776Z,32.69
2018-06-08T09:18:46.003Z,32.66
2018-06-08T09:19:56.215Z,32.53
2018-06-08T09:21:06.424Z,32.63
2018-06-08T09:22:16.659Z,32.69
2018-06-08T09:23:26.880Z,32.78
2018-06-08T09:24:38.071Z,32.97
2018-06-08T09:25:54.323Z,32.94
2018-06-08T09:27:04.489Z,32.78
2018-06-08T09:28:18.605Z,32.65
2018-06-08T09:29:28.528Z,32.66
2018-06-08T09:30:38.753Z,32.73
2018-06-08T09:31:48.934Z,32.92
2018-06-08T09:32:59.131Z,32.85
2018-06-08T09:34:09.312Z,32.88
2018-06-08T09:35:21.861Z,32.96
2018-06-08T09:36:32.041Z,32.75
2018-06-08T09:37:42.230Z,32.77
2018-06-08T09:38:52.423Z,32.8
2018-06-08T09:40:02.702Z,32.68
2018-06-08T09:41:12.968Z,32.75
2018-06-08T09:42:23.199Z,32.96
2018-06-08T09:43:33.427Z,32.96
2018-06-08T09:44:43.636Z,33.08
2018-06-08T09:45:53.850Z,33.1
2018-06-08T09:47:05.427Z,33.37
2018-06-08T09:48:15.697Z,33.5
2018-06-08T09:49:25.910Z,33.48
2018-06-08T09:50:35.826Z,33.41
2018-06-08T09:51:46.008Z,33.38
2018-06-08T09:52:56.190Z,33.38
2018-06-08T09:54:06.364Z,33.35
2018-06-08T09:55:16.282Z,33.48
2018-06-08T09:56:26.445Z,33.57
2018-06-08T09:57:36.627Z,33.78
2018-06-08T09:58:46.829Z,33.95
2018-06-08T09:59:57.020Z,33.91
2018-06-08T10:01:07.188Z,33.94
2018-06-08T10:02:17.415Z,33.93
2018-06-08T10:03:27.603Z,33.97
2018-06-08T10:04:37.813Z,34.09
2018-06-08T10:05:48.055Z,34.12
2018-06-08T10:06:58.216Z,34.24
2018-06-08T10:08:08.403Z,34.29
2018-06-08T10:09:18.688Z,34.36
2018-06-08T10:10:28.918Z,34.43
2018-06-08T10:11:39.184Z,34.54
2018-06-08T10:12:49.376Z,34.74
2018-06-08T10:13:59.630Z,34.73
2018-06-08T10:15:09.822Z,34.6
2018-06-08T10:16:20.092Z,34.57
2018-06-08T10:17:30.297Z,34.44
2018-06-08T10:18:40.478Z,34.33
2018-06-08T10:19:50.719Z,34.38
2018-06-08T10:21:00.644Z,34.43
2018-06-08T10:22:10.860Z,34.6
2018-06-08T10:23:21.027Z,34.73
2018-06-08T10:24:31.220Z,34.64
2018-06-08T10:25:41.471Z,34.69
2018-06-08T10:26:51.712Z,34.73
2018-06-08T10:28:01.615Z,34.74
2018-06-08T10:29:11.819Z,34.52
2018-06-08T10:30:22.022Z,34.45
2018-06-08T10:31:32.210Z,34.33
2018-06-08T10:32:42.399Z,34.08
2018-06-08T10:33:52.708Z,34.08
2018-06-08T10:35:02.972Z,34.03
2018-06-08T10:36:13.199Z,34.05
2018-06-08T10:37:23.352Z,33.98
2018-06-08T10:38:33.320Z,33.88
2018-06-08T10:39:43.545Z,33.93
2018-06-08T10:40:53.786Z,33.86
2018-06-08T10:42:03.981Z,33.82
2018-06-08T10:43:14.207Z,33.82
2018-06-08T10:44:24.402Z,33.72
2018-06-08T10:45:34.640Z,33.82
2018-06-08T10:46:44.973Z,33.79
2018-06-08T10:47:55.168Z,33.83
2018-06-08T10:49:05.359Z,33.72
2018-06-08T10:50:15.522Z,33.72
2018-06-08T10:51:25.780Z,33.64
2018-06-08T10:52:36.020Z,33.66
2018-06-08T10:53:46.216Z,33.6
2018-06-08T10:54:56.463Z,33.56
2018-06-08T10:56:06.625Z,33.71
2018-06-08T10:57:16.824Z,33.81
2018-06-08T10:58:26.995Z,33.82
2018-06-08T10:59:37.175Z,33.68
2018-06-08T11:00:47.418Z,33.6
2018-06-08T11:01:57.722Z,33.42
2018-06-08T11:03:08.004Z,33.57
2018-06-08T11:04:18.179Z,33.61
2018-06-08T11:05:28.384Z,33.66
2018-06-08T11:06:38.566Z,33.44
2018-06-08T11:07:48.810Z,33.44
2018-06-08T11:08:58.998Z,33.27
2018-06-08T11:10:09.195Z,33.23
2018-06-08T11:11:19.520Z,33.11
2018-06-08T11:12:29.828Z,33.01
2018-06-08T11:13:40.011Z,33.16
2018-06-08T11:14:50.203Z,33.39
2018-06-08T11:16:00.398Z,33.48
2018-06-08T11:17:10.590Z,33.59
2018-06-08T11:18:20.787Z,33.72
2018-06-08T11:19:31.009Z,33.83
2018-06-08T11:20:41.220Z,33.68
2018-06-08T11:21:51.553Z,33.6
2018-06-08T11:23:01.757Z,33.56
2018-06-08T11:24:11.702Z,33.76
2018-06-08T11:25:21.892Z,33.83
2018-06-08T11:26:32.049Z,33.97
2018-06-08T11:27:42.282Z,33.9
2018-06-08T11:28:52.466Z,33.94
2018-06-08T11:30:02.652Z,33.88
2018-06-08T11:31:12.882Z,33.87
2018-06-08T11:32:23.093Z,33.78
2018-06-08T11:33:33.266Z,33.68
2018-06-08T11:34:43.485Z,33.81
2018-06-08T11:35:53.702Z,33.75
2018-06-08T11:37:03.902Z,33.88
2018-06-08T11:38:14.100Z,33.83
2018-06-08T11:39:24.582Z,33.81
2018-06-08T11:40:34.999Z,33.81
2018-06-08T11:41:45.271Z,33.66
2018-06-08T11:42:55.483Z,33.68
2018-06-08T11:44:05.736Z,33.81
2018-06-08T11:45:16.028Z,33.83
2018-06-08T11:46:26.221Z,33.79
2018-06-08T11:47:36.458Z,33.72
2018-06-08T11:48:46.721Z,33.69
2018-06-08T11:49:56.935Z,33.64
2018-06-08T11:51:07.121Z,33.64
2018-06-08T11:52:17.292Z,33.75
2018-06-08T11:53:27.520Z,33.88
2018-06-08T11:54:37.801Z,33.97
2018-06-08T11:55:47.990Z,33.98
2018-06-08T11:56:58.190Z,33.88
2018-06-08T11:58:08.405Z,33.95
2018-06-08T11:59:18.719Z,33.83
2018-06-08T12:00:28.932Z,33.91
2018-06-08T12:01:39.110Z,33.95
2018-06-08T12:02:49.384Z,33.91
2018-06-08T12:03:59.617Z,33.76
2018-06-08T12:05:09.795Z,33.54
2018-06-08T12:06:20.029Z,33.23
2018-06-08T12:07:30.221Z,33.08
2018-06-08T12:08:40.449Z,32.94
2018-06-08T12:09:50.646Z,32.87
2018-06-08T12:11:00.830Z,32.82
2018-06-08T12:12:11.042Z,32.75
2018-06-08T12:13:21.258Z,32.78
2018-06-08T12:14:31.521Z,32.65
2018-06-08T12:15:41.735Z,32.58
2018-06-08T12:16:52.036Z,32.51
2018-06-08T12:18:02.281Z,32.51
2018-06-08T12:19:12.519Z,32.5
2018-06-08T12:20:22.761Z,32.32
2018-06-08T12:21:32.947Z,32.44
2018-06-08T12:22:43.144Z,32.41
2018-06-08T12:23:53.090Z,32.48
2018-06-08T12:25:03.479Z,32.47
2018-06-08T12:26:13.725Z,32.5
2018-06-08T12:27:23.735Z,32.59
2018-06-08T12:28:33.913Z,32.68
2018-06-08T12:29:44.218Z,32.63
2018-06-08T12:30:54.114Z,32.72
2018-06-08T12:32:04.338Z,32.73
2018-06-08T12:33:14.043Z,32.63
2018-06-08T12:34:24.321Z,32.44
2018-06-08T12:35:34.546Z,32.21
2018-06-08T12:36:44.754Z,32.03
2018-06-08T12:37:55.071Z,31.9
2018-06-08T12:39:05.299Z,31.68
2018-06-08T12:40:15.514Z,31.55
2018-06-08T12:41:25.742Z,31.51
2018-06-08T12:42:35.927Z,31.37
2018-06-08T12:43:46.109Z,31.38
2018-06-08T12:44:57.316Z,31.32
2018-06-08T12:46:07.548Z,31.42
2018-06-08T12:47:17.732Z,31.44
2018-06-08T12:48:27.998Z,31.4
2018-06-08T12:49:38.215Z,31.38
2018-06-08T12:50:48.383Z,31.35
2018-06-08T12:51:58.682Z,31.28
2018-06-08T12:53:08.589Z,31.15
2018-06-08T12:54:18.816Z,31.09
2018-06-08T12:55:29.023Z,31.07
2018-06-08T12:56:39.291Z,31.07
2018-06-08T12:57:49.500Z,31.07
2018-06-08T12:58:59.694Z,31
2018-06-08T13:00:09.944Z,30.94
2018-06-08T13:01:20.123Z,30.93
2018-06-08T13:02:30.290Z,30.85
2018-06-08T13:03:40.462Z,30.86
2018-06-08T13:04:50.757Z,30.85
2018-06-08T13:06:00.957Z,30.82
2018-06-08T13:07:11.146Z,30.86
2018-06-08T13:08:21.336Z,30.79
2018-06-08T13:09:31.755Z,30.74
2018-06-08T13:10:42.065Z,30.79
2018-06-08T13:11:52.370Z,30.75
2018-06-08T13:13:02.601Z,30.75
2018-06-08T13:14:12.940Z,30.78
2018-06-08T13:15:23.143Z,30.78
2018-06-08T13:16:33.316Z,30.76
2018-06-08T13:17:43.524Z,30.72
2018-06-08T13:18:53.753Z,30.81
2018-06-08T13:20:04.019Z,30.76
2018-06-08T13:21:14.260Z,30.78
2018-06-08T13:22:24.493Z,30.6
2018-06-08T13:23:34.184Z,30.66
2018-06-08T13:24:44.366Z,30.59
2018-06-08T13:25:54.605Z,30.63
2018-06-08T13:27:04.525Z,30.69
2018-06-08T13:28:14.757Z,30.63
2018-06-08T13:29:24.956Z,30.59
2018-06-08T13:30:34.641Z,30.6
2018-06-08T13:31:44.621Z,30.41
2018-06-08T13:32:54.532Z,30.39
2018-06-08T13:34:04.722Z,30.35
2018-06-08T13:35:14.902Z,30.26
2018-06-08T13:36:25.096Z,30.27
2018-06-08T13:37:35.304Z,30.29
2018-06-08T13:38:45.486Z,30.32
2018-06-08T13:39:55.424Z,30.39
2018-06-08T13:41:05.606Z,30.42
2018-06-08T13:42:15.805Z,30.32
2018-06-08T13:43:25.991Z,30.3
2018-06-08T13:44:36.188Z,30.49
2018-06-08T13:45:46.420Z,30.41
2018-06-08T13:46:56.602Z,30.38
2018-06-08T13:48:06.874Z,30.47
2018-06-08T13:49:17.052Z,30.44
2018-06-08T13:50:27.250Z,30.47
2018-06-08T13:51:37.087Z,30.37
2018-06-08T13:52:47.301Z,30.45
2018-06-08T13:53:57.511Z,30.45
2018-06-08T13:55:07.710Z,30.39
2018-06-08T13:56:17.905Z,30.47
2018-06-08T13:57:27.891Z,30.45
2018-06-08T13:58:37.815Z,30.47
2018-06-08T13:59:48.014Z,30.35
2018-06-08T14:00:57.847Z,30.42
2018-06-08T14:02:08.290Z,30.45
2018-06-08T14:03:18.545Z,30.38
2018-06-08T14:04:28.781Z,30.37
2018-06-08T14:05:38.989Z,30.3
2018-06-08T14:06:49.192Z,30.17
2018-06-08T14:07:59.590Z,30.16
2018-06-08T14:09:09.906Z,30.07
2018-06-08T14:10:20.098Z,29.95
2018-06-08T14:11:30.353Z,29.82
2018-06-08T14:12:40.589Z,29.7
2018-06-08T14:13:50.401Z,29.67
2018-06-08T14:15:00.597Z,29.5
2018-06-08T14:16:10.798Z,29.48
2018-06-08T14:17:21.113Z,29.4
2018-06-08T14:18:31.347Z,29.4
2018-06-08T14:19:41.547Z,29.29
2018-06-08T14:20:51.838Z,29.29
2018-06-08T14:22:02.143Z,29.33
2018-06-08T14:23:12.363Z,29.28
2018-06-08T14:24:22.547Z,29.32
2018-06-08T14:25:32.565Z,29.39
2018-06-08T14:26:42.752Z,29.4
2018-06-08T14:27:52.938Z,29.43
2018-06-08T14:29:03.139Z,29.45
2018-06-08T14:30:13.358Z,29.55
2018-06-08T14:31:23.626Z,29.58
2018-06-08T14:32:33.595Z,29.62
2018-06-08T14:33:43.942Z,29.6
2018-06-08T14:34:54.280Z,29.67
2018-06-08T14:36:04.265Z,29.72
2018-06-08T14:37:14.473Z,29.72
2018-06-08T14:38:24.823Z,29.73
2018-06-08T14:39:35.061Z,29.75
2018-06-08T14:40:45.405Z,29.88
2018-06-08T14:41:55.768Z,29.77
2018-06-08T14:43:05.962Z,29.76
2018-06-08T14:44:16.161Z,29.77
2018-06-08T14:45:26.350Z,29.76
2018-06-08T14:46:36.564Z,29.72
2018-06-08T14:47:46.736Z,29.69
2018-06-08T14:48:56.910Z,29.63
2018-06-08T14:50:07.136Z,29.6
2018-06-08T14:51:17.369Z,29.53
2018-06-08T14:52:27.532Z,29.58
2018-06-08T14:53:37.869Z,29.5
2018-06-08T14:54:48.162Z,29.4
2018-06-08T14:55:59.366Z,29.39
2018-06-08T14:57:09.434Z,29.18
2018-06-08T14:58:19.676Z,29.29
2018-06-08T14:59:29.874Z,29.29
2018-06-08T15:00:40.207Z,29.29
2018-06-08T15:01:50.435Z,29.32
2018-06-08T15:03:00.623Z,29.32
2018-06-08T15:04:10.845Z,29.17
2018-06-08T15:05:21.142Z,29.25
2018-06-08T15:06:31.309Z,29.18
2018-06-08T15:07:41.501Z,29.16
2018-06-08T15:08:51.711Z,29.21
2018-06-08T15:10:01.906Z,29.16
2018-06-08T15:11:12.209Z,29.17
2018-06-08T15:12:22.353Z,29.14